Time;durP1;ratioP1;P1;durP2;ratioP2;P2;SDS_P1;SDS_P2;PMS_P1;PMS_P2;Temp;Humidity;BMP_temperature;BMP_pressure;BME280_temperature;BME280_humidity;BME280_pressure;Samples;Min_cycle;Max_cycle;Signal;HPM_P1;HPM_P2
2022/05/03 00:00:36;;;;;;;34.13;19.30;;;;;;;11.26;58.94;100704.16;5149398;56;1143141;-73
2022/05/03 00:06:12;;;;;;;37.87;23.23;;;;;;;11.02;59.73;100691.47;5221663;55;1143126;-74
2022/05/03 00:11:33;;;;;;;32.60;20.13;;;;;;;10.92;59.55;100687.38;5221423;56;1143161;-73
2022/05/03 00:16:40;;;;;;;26.90;13.80;;;;;;;10.85;59.95;100692.75;5220687;56;1141086;-76
2022/05/03 00:21:47;;;;;;;28.77;15.00;;;;;;;10.65;60.25;100685.50;5218395;56;1141130;-75
2022/05/03 00:26:53;;;;;;;25.03;13.73;;;;;;;10.63;60.99;100684.77;5214750;56;1141309;-75
2022/05/03 00:32:00;;;;;;;51.37;18.13;;;;;;;10.66;61.55;100676.61;5214117;56;1141144;-72
2022/05/03 00:37:06;;;;;;;45.73;18.00;;;;;;;10.69;61.10;100676.39;5182645;56;1141177;-73
2022/05/03 00:42:26;;;;;;;36.97;17.57;;;;;;;10.60;60.78;100672.25;5165359;56;1141324;-74
2022/05/03 00:47:39;;;;;;;39.10;16.73;;;;;;;10.57;60.93;100675.96;5238888;55;1141202;-74
2022/05/03 00:52:58;;;;;;;39.78;17.65;;;;;;;10.55;60.78;100669.94;5252261;55;1141313;-75
2022/05/03 00:58:29;;;;;;;34.20;15.97;;;;;;;10.38;60.66;100667.27;5242148;56;1141687;-76
2022/05/03 01:03:48;;;;;;;30.17;15.53;;;;;;;10.26;60.88;100662.02;5250936;55;1142963;-74
2022/05/03 01:09:07;;;;;;;33.13;15.80;;;;;;;10.25;61.41;100665.61;5252135;55;1143154;-75
2022/05/03 01:14:37;;;;;;;44.13;21.63;;;;;;;10.18;61.52;100666.08;5252099;55;1143089;-75
2022/05/03 01:20:07;;;;;;;70.63;24.87;;;;;;;10.08;61.49;100662.38;5247444;56;1143146;-73
2022/05/03 01:25:35;;;;;;;37.40;16.83;;;;;;;10.05;62.09;100658.66;5188223;56;1143179;-73
2022/05/03 01:30:47;;;;;;;34.05;15.48;;;;;;;10.01;62.38;100655.02;5191129;57;1143141;-73
2022/05/03 01:35:55;;;;;;;29.83;13.90;;;;;;;9.98;62.29;100655.24;5123675;57;1143271;-73
2022/05/03 01:41:14;;;;;;;21.27;11.70;;;;;;;9.60;61.80;100654.91;5078413;58;1139029;-74
2022/05/03 01:46:29;;;;;;;27.20;13.87;;;;;;;9.51;62.74;100653.74;5065246;58;1139116;-72
2022/05/03 01:52:09;;;;;;;28.00;13.60;;;;;;;9.50;63.18;100653.84;5078427;58;1139080;-75
2022/05/03 01:57:41;;;;;;;29.53;15.13;;;;;;;9.57;63.72;100660.87;5082358;57;1137401;-74
2022/05/03 02:03:25;;;;;;;31.77;15.13;;;;;;;9.59;63.37;100659.81;5136000;57;1136912;-75
2022/05/03 02:08:32;;;;;;;33.07;14.53;;;;;;;9.56;63.04;100659.18;5135741;57;1134862;-74
2022/05/03 02:20:28;;;;;;;25.77;13.03;;;;;;;9.41;63.34;100658.00;5133982;57;1139033;-73
2022/05/03 02:25:44;;;;;;;36.93;15.73;;;;;;;9.27;63.01;100659.92;5132707;57;1138942;-74
2022/05/03 02:30:53;;;;;;;29.23;14.03;;;;;;;8.77;63.40;100660.28;5131477;57;1138971;-75
2022/05/03 02:36:00;;;;;;;26.93;14.70;;;;;;;8.33;64.45;100665.42;5167547;56;1138926;-73
2022/05/03 02:41:10;;;;;;;28.20;16.03;;;;;;;7.98;65.43;100666.36;5232125;56;1139032;-75
2022/05/03 02:46:37;;;;;;;38.63;16.17;;;;;;;7.80;66.27;100668.00;5232518;56;1139048;-73
2022/05/03 02:51:53;;;;;;;27.80;14.07;;;;;;;7.95;66.70;100665.23;5218114;56;1140419;-74
2022/05/03 02:57:27;;;;;;;32.33;15.00;;;;;;;7.97;66.34;100673.03;5218184;56;1141091;-74
2022/05/03 03:02:39;;;;;;;38.67;15.85;;;;;;;8.20;67.29;100665.83;5217974;56;1139037;-72
2022/05/03 03:07:56;;;;;;;;;;;;;;;8.46;67.29;100672.88;5222113;56;1138984;-74
2022/05/03 03:13:13;;;;;;;23.25;12.75;;;;;;;8.62;67.23;100659.52;5220404;56;972094;-75
2022/05/03 03:18:24;;;;;;;23.43;12.50;;;;;;;8.69;66.62;100668.72;5218211;56;1136901;-73
2022/05/03 03:23:30;;;;;;;21.30;12.03;;;;;;;8.69;66.62;100668.72;5218205;56;1136904;-75
2022/05/03 03:28:38;;;;;;;24.43;13.07;;;;;;;8.56;65.89;100674.42;5218275;56;1136925;-74
2022/05/03 03:33:44;;;;;;;31.23;13.73;;;;;;;8.31;65.97;100673.86;5241601;55;1134876;-72
2022/05/03 03:38:50;;;;;;;28.43;13.77;;;;;;;8.29;66.80;100676.22;5166430;55;1135018;-72
2022/05/03 03:43:56;;;;;;;27.23;11.10;;;;;;;8.32;67.21;100673.42;5146233;55;1139207;-74
2022/05/03 03:49:03;;;;;;;19.00;9.60;;;;;;;8.27;66.92;100682.91;5079098;57;1139229;-74
2022/05/03 03:54:09;;;;;;;18.27;10.63;;;;;;;8.09;67.32;100679.70;5078657;57;1136979;-72
2022/05/03 03:59:16;;;;;;;15.80;9.57;;;;;;;7.92;67.58;100681.73;5079480;56;1139055;-73
2022/05/03 04:04:26;;;;;;;15.20;10.97;;;;;;;7.68;68.34;100688.91;5079284;56;1136966;-74
2022/05/03 04:09:33;;;;;;;15.97;8.10;;;;;;;7.68;70.50;100665.21;5079446;57;1139039;-76
2022/05/03 04:14:39;;;;;;;18.43;9.57;;;;;;;7.87;70.48;100681.16;5079366;56;1138947;-74
2022/05/03 04:19:45;;;;;;;14.13;9.28;;;;;;;7.74;70.65;100672.73;5035504;57;1139040;-76
2022/05/03 04:24:52;;;;;;;15.13;10.03;;;;;;;7.73;71.54;100675.46;5046771;57;1139118;-73
2022/05/03 04:29:58;;;;;;;15.20;9.63;;;;;;;7.79;72.56;100668.50;5046749;57;1141202;-73
2022/05/03 04:35:05;;;;;;;17.37;9.20;;;;;;;7.88;72.87;100675.80;5060121;57;1139141;-75
2022/05/03 04:40:11;;;;;;;15.93;9.80;;;;;;;8.06;74.00;100677.27;5076888;57;1139017;-73
2022/05/03 04:45:17;;;;;;;14.67;9.63;;;;;;;8.23;74.02;100668.27;5077081;57;1139021;-74
2022/05/03 04:50:23;;;;;;;15.37;8.97;;;;;;;8.21;73.52;100682.01;5077140;57;1137371;-73
2022/05/03 04:55:29;;;;;;;21.57;8.73;;;;;;;8.12;74.43;100679.48;5077008;57;1137154;-74
2022/05/03 05:00:36;;;;;;;14.03;9.57;;;;;;;8.08;74.93;100685.06;5076994;57;1138994;-72
2022/05/03 05:05:41;;;;;;;17.95;9.43;;;;;;;8.09;75.65;100700.78;5066425;58;1138967;-73
2022/05/03 05:10:47;;;;;;;15.30;9.63;;;;;;;8.19;76.59;100696.22;5096972;56;1139015;-74
2022/05/03 05:15:53;;;;;;;14.27;8.27;;;;;;;8.28;76.56;100711.42;5133593;56;1138977;-75
2022/05/03 05:20:59;;;;;;;15.97;10.30;;;;;;;8.34;77.65;100714.55;5185260;55;1136876;-75
2022/05/03 05:26:05;;;;;;;20.13;9.70;;;;;;;8.36;77.37;100711.34;5264238;55;1141032;-75
2022/05/03 05:31:11;;;;;;;14.93;9.10;;;;;;;8.48;77.68;100714.11;5272277;55;1139070;-74
2022/05/03 05:36:18;;;;;;;13.30;8.47;;;;;;;8.61;78.70;100710.56;5207387;55;1138944;-72
2022/05/03 05:41:24;;;;;;;16.80;8.77;;;;;;;8.78;79.20;100710.28;5220223;55;1138978;-73
2022/05/03 05:46:30;;;;;;;15.80;9.40;;;;;;;8.96;79.29;100708.20;5218328;56;1138979;-75
2022/05/03 05:51:36;;;;;;;12.27;8.40;;;;;;;9.21;79.28;100699.45;5233598;55;1139006;-75
2022/05/03 05:56:42;;;;;;;17.03;9.07;;;;;;;9.38;78.21;100696.48;5236338;56;1139297;-73
2022/05/03 06:01:49;;;;;;;11.73;7.80;;;;;;;9.60;78.68;100706.39;5232429;56;1139002;-72
2022/05/03 06:06:57;;;;;;;14.60;8.00;;;;;;;9.82;78.56;100708.34;5230450;56;1139162;-73
2022/05/03 06:12:07;;;;;;;10.10;7.03;;;;;;;10.08;78.49;100705.16;5203141;56;1139188;-75
2022/05/03 06:17:33;;;;;;;14.20;7.83;;;;;;;10.35;77.99;100707.62;5209977;56;1142258;-74
2022/05/03 06:22:52;;;;;;;17.23;8.07;;;;;;;10.62;77.36;100712.17;5245266;55;1139318;-74
2022/05/03 06:27:58;;;;;;;9.70;5.20;;;;;;;10.98;76.26;100719.63;5218097;55;1139698;-74
2022/05/03 06:33:04;;;;;;;5.00;4.07;;;;;;;11.25;72.92;100715.71;5240403;55;1137064;-73
2022/05/03 06:38:10;;;;;;;4.20;3.53;;;;;;;11.54;70.15;100715.24;5165910;56;1136816;-73
2022/05/03 06:43:15;;;;;;;5.13;3.60;;;;;;;11.85;70.08;100720.32;5205476;56;1137143;-74
2022/05/03 06:48:21;;;;;;;8.23;3.47;;;;;;;12.17;67.25;100720.39;5240408;56;1136877;-74
2022/05/03 06:53:26;;;;;;;3.30;3.03;;;;;;;12.40;65.28;100716.69;5294743;55;1136933;-75
2022/05/03 06:58:32;;;;;;;4.80;3.23;;;;;;;12.46;62.68;100728.62;5308216;55;1137351;-75
2022/05/03 07:03:39;;;;;;;11.07;4.90;;;;;;;12.49;60.96;100729.70;5308166;55;1137183;-73
2022/05/03 07:08:44;;;;;;;9.23;4.13;;;;;;;12.56;61.57;100723.75;5240060;55;1139143;-76
2022/05/03 07:13:50;;;;;;;5.77;4.33;;;;;;;12.68;58.89;100725.86;5175703;55;1136924;-73
2022/05/03 07:24:18;;;;;;;5.40;4.00;;;;;;;12.95;58.45;100723.58;5262982;55;1137154;-74
2022/05/03 07:29:24;;;;;;;5.10;3.23;;;;;;;13.18;56.06;100723.46;5268763;55;1136910;-74
2022/05/03 07:34:30;;;;;;;4.40;3.70;;;;;;;13.21;56.12;100725.86;5209950;56;1136932;-75
2022/05/03 07:39:35;;;;;;;8.63;3.90;;;;;;;13.28;56.25;100729.20;5208321;56;1134835;-75
2022/05/03 07:44:41;;;;;;;6.63;4.57;;;;;;;13.41;55.33;100728.98;5219895;55;1134864;-73
2022/05/03 07:49:47;;;;;;;13.20;5.40;;;;;;;13.47;55.90;100731.09;5226604;56;1138948;-75
2022/05/03 07:54:52;;;;;;;5.87;4.37;;;;;;;13.58;56.63;100729.70;5223196;56;1141011;-73
2022/05/03 07:59:58;;;;;;;7.47;4.30;;;;;;;13.77;56.34;100730.73;5223025;56;1138914;-75
2022/05/03 08:05:04;;;;;;;6.73;3.77;;;;;;;13.99;56.42;100739.85;5228562;56;1138997;-74
2022/05/03 08:10:10;;;;;;;6.80;3.13;;;;;;;14.23;54.49;100738.14;5215090;56;1138984;-73
2022/05/03 08:15:16;;;;;;;6.57;3.60;;;;;;;14.46;54.44;100744.11;5177113;56;1139307;-75
2022/05/03 08:20:22;;;;;;;3.47;3.17;;;;;;;14.60;52.35;100750.36;5135422;56;1139222;-74
2022/05/03 08:25:28;;;;;;;4.63;2.73;;;;;;;14.67;51.24;100748.31;5176427;56;1139024;-73
2022/05/03 08:30:35;;;;;;;6.47;3.35;;;;;;;14.68;50.92;100745.16;5242093;55;1138958;-75
2022/05/03 08:35:40;;;;;;;4.87;3.13;;;;;;;14.73;52.40;100746.44;5211461;56;1139003;-74
2022/05/03 08:46:10;;;;;;;4.28;2.87;;;;;;;14.95;52.71;100739.15;5224305;55;1139052;-72
2022/05/03 08:51:21;;;;;;;6.90;3.73;;;;;;;15.06;50.94;100745.65;5202101;55;1138930;-74
2022/05/03 08:56:27;;;;;;;15.83;4.10;;;;;;;15.29;51.63;100751.48;5212189;55;1138972;-73
2022/05/03 09:01:34;;;;;;;5.10;4.27;;;;;;;15.41;51.24;100747.69;5213242;55;1141298;-75
2022/05/03 09:06:50;;;;;;;6.60;3.87;;;;;;;15.51;51.23;100736.98;5204148;55;1139159;-76
2022/05/03 09:11:57;;;;;;;3.77;3.10;;;;;;;15.70;50.47;100738.30;5180152;56;1139037;-74
2022/05/03 09:17:03;;;;;;;4.83;3.63;;;;;;;15.96;51.02;100735.78;5178598;56;1139153;-73
2022/05/03 09:27:27;;;;;;;4.67;3.20;;;;;;;16.52;52.05;100715.52;5133887;56;1139009;-74
2022/05/03 09:32:42;;;;;;;7.57;3.03;;;;;;;16.70;47.40;100713.73;5229725;56;1139119;-74
2022/05/03 09:37:49;;;;;;;5.10;3.80;;;;;;;16.71;45.30;100714.56;5242671;56;1139059;-74
2022/05/03 09:42:56;;;;;;;4.37;3.23;;;;;;;16.68;47.56;100717.54;5223683;56;1138959;-74
2022/05/03 09:48:02;;;;;;;3.67;2.43;;;;;;;16.86;49.06;100715.70;5198253;56;1139163;-73
2022/05/03 09:53:16;;;;;;;8.20;3.57;;;;;;;16.90;46.13;100721.08;5195784;56;1139208;-75
2022/05/03 09:58:22;;;;;;;3.30;2.90;;;;;;;16.99;45.81;100718.80;5172818;56;1139059;-73
2022/05/03 10:03:29;;;;;;;6.67;3.47;;;;;;;17.03;46.49;100719.34;5148442;56;1139046;-73
2022/05/03 10:08:35;;;;;;;8.67;2.50;;;;;;;17.13;47.05;100716.90;5208509;56;1136815;-74
2022/05/03 10:13:41;;;;;;;2.40;2.20;;;;;;;17.33;43.50;100707.34;5156036;56;1137046;-74
2022/05/03 10:24:17;;;;;;;3.00;2.50;;;;;;;17.56;44.94;100714.69;5189523;55;1137143;-73
2022/05/03 10:29:25;;;;;;;2.10;1.77;;;;;;;17.81;41.88;100695.59;5240692;56;1136869;-74
2022/05/03 10:34:46;;;;;;;1.77;1.67;;;;;;;17.72;41.28;100699.74;5267931;55;1136902;-74
2022/05/03 10:39:58;;;;;;;5.70;1.83;;;;;;;17.70;41.12;100702.58;5260198;56;1136838;-74
2022/05/03 10:45:13;;;;;;;1.87;1.50;;;;;;;17.91;43.32;100693.61;5278818;56;1137185;-72
2022/05/03 10:50:22;;;;;;;1.64;1.54;;;;;;;18.17;39.38;100686.84;5266574;56;1134818;-74
2022/05/03 10:55:37;;;;;;;1.87;1.60;;;;;;;18.45;40.73;100691.91;5199244;56;1138929;-72
2022/05/03 11:01:21;;;;;;;3.77;1.40;;;;;;;18.41;37.70;100689.22;5225708;56;1138973;-73
2022/05/03 11:06:31;;;;;;;;;;;;;;;18.36;38.57;100684.84;5265046;55;1139004;-74
2022/05/03 11:11:47;;;;;;;2.37;1.87;;;;;;;18.26;38.83;100683.67;5232361;56;976291;-74
2022/05/03 11:17:08;;;;;;;3.33;1.20;;;;;;;18.42;39.10;100679.68;5250693;56;1136852;-73
2022/05/03 11:22:21;;;;;;;3.98;1.00;;;;;;;18.50;38.75;100678.84;5210346;56;1139092;-74
2022/05/03 11:27:28;;;;;;;1.25;1.07;;;;;;;18.71;35.93;100673.03;5229105;55;1138972;-73
2022/05/03 11:32:40;;;;;;;3.50;1.47;;;;;;;18.70;35.08;100670.84;5234930;55;1139015;-75
2022/05/03 11:37:50;;;;;;;1.53;0.73;;;;;;;18.79;34.93;100667.69;5165287;56;1139000;-74
2022/05/03 11:42:56;;;;;;;2.55;1.10;;;;;;;18.98;33.73;100669.98;5164812;56;1139307;-74
2022/05/03 11:48:05;;;;;;;0.72;0.72;;;;;;;19.07;36.07;100663.63;5164875;56;1139199;-75
2022/05/03 11:58:41;;;;;;;1.65;0.62;;;;;;;19.24;32.90;100652.36;5204979;56;1139029;-74
2022/05/03 12:03:53;;;;;;;5.33;1.15;;;;;;;19.32;34.13;100654.50;5208636;56;1139173;-73
2022/05/03 12:08:59;;;;;;;1.60;0.73;;;;;;;19.40;33.26;100651.48;5211248;56;1136846;-74
2022/05/03 12:14:05;;;;;;;1.40;0.75;;;;;;;19.32;31.93;100663.05;5207098;55;1136966;-74
2022/05/03 12:19:19;;;;;;;1.32;0.90;;;;;;;19.32;31.35;100645.62;5206998;56;1136901;-74
2022/05/03 12:24:29;;;;;;;1.30;1.20;;;;;;;19.36;32.37;100647.45;5208813;55;1136827;-74
2022/05/03 12:29:35;;;;;;;1.62;1.20;;;;;;;19.38;33.32;100645.45;5222400;55;1136906;-73
2022/05/03 12:34:46;;;;;;;5.00;0.57;;;;;;;19.42;34.53;100643.56;5230934;55;1137013;-74
2022/05/03 12:39:49;;;;;;;3.27;1.17;;;;;;;19.71;33.69;100638.94;5190245;56;1137121;-73
2022/05/03 12:44:59;;;;;;;18.50;12.50;;;;;;;19.91;34.71;100633.98;5191285;57;1136261;-74
2022/05/03 12:50:05;;;;;;;149.82;119.68;;;;;;;20.40;34.02;100626.47;5191152;57;1141035;-74
2022/05/03 12:55:11;;;;;;;11.18;9.38;;;;;;;20.50;35.03;100624.36;5191093;57;1145240;-74
2022/05/03 13:00:17;;;;;;;1.22;0.90;;;;;;;20.87;35.14;100628.91;5243692;56;1138999;-75
2022/05/03 13:05:22;;;;;;;1.57;0.70;;;;;;;20.98;34.33;100621.73;5279051;56;1137185;-74
2022/05/03 13:10:28;;;;;;;0.80;0.78;;;;;;;21.15;34.09;100614.32;5279108;55;1136899;-74
2022/05/03 13:15:35;;;;;;;2.80;0.90;;;;;;;21.18;33.59;100617.16;5278922;56;1137120;-75
2022/05/03 13:20:43;;;;;;;1.35;0.90;;;;;;;20.84;31.29;100619.02;5278943;56;1136855;-74
2022/05/03 13:25:49;;;;;;;0.70;0.70;;;;;;;20.36;33.67;100619.27;5249713;56;1134804;-73
2022/05/03 13:30:56;;;;;;;0.80;0.80;;;;;;;20.08;32.21;100609.22;5262961;55;1138980;-75
2022/05/03 13:41:22;;;;;;;1.32;1.00;;;;;;;20.20;34.80;100618.52;5123821;55;1139148;-74
2022/05/03 13:46:28;;;;;;;2.15;0.70;;;;;;;20.13;34.89;100617.58;5223934;55;1138833;-73
2022/05/03 13:51:34;;;;;;;4.95;0.50;;;;;;;20.10;36.29;100617.42;5181012;55;1138876;-72
2022/05/03 13:56:40;;;;;;;0.88;0.50;;;;;;;20.43;35.96;100610.50;5219536;55;1138937;-74
2022/05/03 14:01:46;;;;;;;1.27;0.62;;;;;;;20.50;35.85;100620.84;5245178;56;1139031;-74
2022/05/03 14:06:52;;;;;;;10.08;1.10;;;;;;;20.51;35.60;100606.39;5207775;56;1139071;-73
2022/05/03 14:11:58;;;;;;;0.37;0.37;;;;;;;20.48;35.74;100610.27;5171769;56;1141072;-72
2022/05/03 14:17:05;;;;;;;0.90;0.90;;;;;;;20.56;36.08;100604.00;5179619;56;1138939;-73
2022/05/03 14:22:11;;;;;;;2.75;0.65;;;;;;;20.47;35.08;100611.28;5176137;56;1139034;-72
2022/05/03 14:27:17;;;;;;;5.03;1.10;;;;;;;20.40;36.47;100616.23;5166721;56;1139109;-73
2022/05/03 14:32:23;;;;;;;1.57;1.10;;;;;;;20.36;36.20;100611.21;5171919;56;1138975;-73
2022/05/03 14:37:29;;;;;;;0.75;0.75;;;;;;;20.20;36.49;100622.55;5181821;56;1139439;-75
2022/05/03 14:42:34;;;;;;;1.00;0.60;;;;;;;19.95;35.74;100625.41;5081752;57;1138985;-74
2022/05/03 14:47:40;;;;;;;0.95;0.55;;;;;;;19.78;36.34;100623.83;5083286;57;1139067;-73
2022/05/03 14:52:46;;;;;;;6.33;2.95;;;;;;;19.61;35.99;100629.77;5093746;57;1139461;-73
2022/05/03 15:03:16;;;;;;;3.10;0.80;;;;;;;19.38;37.04;100628.01;5206129;56;1139003;-74
2022/05/03 15:08:22;;;;;;;1.55;1.45;;;;;;;19.36;37.72;100630.02;5206616;56;1139244;-73
2022/05/03 15:13:28;;;;;;;5.55;1.25;;;;;;;19.46;37.92;100630.64;5130297;56;1138898;-74
2022/05/03 15:18:33;;;;;;;4.97;2.00;;;;;;;19.55;38.11;100625.62;5162958;56;1139102;-74
2022/05/03 15:29:03;;;;;;;2.30;2.00;;;;;;;19.26;37.79;100631.55;5172421;56;1139013;-74
2022/05/03 15:34:11;;;;;;;3.50;1.10;;;;;;;19.25;37.91;100634.73;5231945;55;1138932;-73
2022/05/03 15:39:17;;;;;;;2.35;1.00;;;;;;;19.29;38.39;100632.55;5149253;56;1139221;-74
2022/05/03 15:44:22;;;;;;;3.02;0.60;;;;;;;19.41;38.50;100633.00;5138460;56;1138995;-73
2022/05/03 15:49:36;;;;;;;10.95;2.08;;;;;;;19.44;37.84;100628.13;5130434;57;1139004;-74
2022/05/03 15:54:41;;;;;;;;;;;;;;;19.19;38.56;100631.92;5133781;57;1141244;-73
2022/05/03 15:59:47;;;;;;;11.73;6.25;;;;;;;18.94;39.13;100638.66;5175587;56;974232;-73
2022/05/03 16:04:53;;;;;;;1.95;1.35;;;;;;;18.73;40.16;100635.69;5177606;56;1136988;-74
2022/05/03 16:09:59;;;;;;;5.70;1.20;;;;;;;18.52;40.06;100632.14;5200103;56;1136928;-73
2022/05/03 16:15:08;;;;;;;3.37;1.67;;;;;;;18.47;40.84;100643.04;5240486;56;1136884;-73
2022/05/03 16:20:13;;;;;;;2.65;2.30;;;;;;;18.50;41.28;100644.02;5226053;56;1136982;-73
2022/05/03 16:25:19;;;;;;;3.50;2.48;;;;;;;18.42;41.02;100638.17;5217874;56;1136998;-73
2022/05/03 16:30:25;;;;;;;1.27;1.17;;;;;;;18.41;41.59;100641.02;5287134;55;1137272;-73
2022/05/03 16:35:30;;;;;;;1.42;1.32;;;;;;;18.50;41.59;100641.34;5306595;55;1136921;-73
2022/05/03 16:46:01;;;;;;;1.75;1.37;;;;;;;18.14;41.50;100640.83;5306781;55;1137004;-73
2022/05/03 16:51:08;;;;;;;7.10;4.53;;;;;;;18.20;42.00;100638.80;5306435;55;1136919;-74
2022/05/03 16:56:19;;;;;;;7.12;5.85;;;;;;;18.26;41.99;100633.64;5275043;55;1136901;-73
2022/05/03 17:01:21;;;;;;;6.62;5.67;;;;;;;18.28;41.68;100637.50;5225950;55;1136823;-74
2022/05/03 17:06:27;;;;;;;4.15;3.05;;;;;;;18.30;42.05;100636.83;5218572;56;1136849;-74
2022/05/03 17:11:33;;;;;;;11.30;5.12;;;;;;;18.23;42.08;100641.16;5218563;56;1134885;-74
2022/05/03 17:16:40;;;;;;;10.63;3.10;;;;;;;18.24;42.35;100638.32;5096632;57;1262675;-74
2022/05/03 17:21:46;;;;;;;9.90;4.43;;;;;;;18.26;42.01;100643.02;5133027;56;1141073;-74
2022/05/03 17:26:52;;;;;;;5.85;3.80;;;;;;;18.22;42.24;100644.84;5161576;56;1138956;-74
2022/05/03 17:31:59;;;;;;;15.13;3.87;;;;;;;18.12;42.66;100649.02;5077019;57;1139172;-74
2022/05/03 17:37:05;;;;;;;4.25;2.60;;;;;;;18.10;43.21;100644.83;5128507;57;1140854;-74
2022/05/03 17:42:11;;;;;;;4.73;3.27;;;;;;;18.06;43.21;100655.52;5123389;57;1139029;-74
2022/05/03 17:47:24;;;;;;;11.33;3.50;;;;;;;17.94;43.06;100663.02;5078220;57;1138930;-74
2022/05/03 17:57:50;;;;;;;3.57;2.53;;;;;;;17.71;44.02;100671.31;5159341;56;1139550;-73
2022/05/03 18:02:55;;;;;;;7.78;3.60;;;;;;;17.67;43.94;100674.80;4732908;55;1138955;-74
2022/05/03 18:08:05;;;;;;;8.17;4.03;;;;;;;17.66;44.30;100673.63;4600032;55;1139053;-73
2022/05/03 18:13:16;;;;;;;10.65;5.53;;;;;;;17.52;44.16;100679.05;4631766;55;1138905;-75
2022/05/03 18:18:21;;;;;;;30.55;10.18;;;;;;;17.53;44.91;100690.09;4721567;55;1141177;-74
2022/05/03 18:23:29;;;;;;;37.70;9.16;;;;;;;17.44;44.83;100693.70;4597743;55;1143131;-73
2022/05/03 18:28:38;;;;;;;9.90;6.42;;;;;;;17.24;45.34;100710.48;4660845;55;1140947;-75
2022/05/03 18:33:44;;;;;;;15.00;9.83;;;;;;;17.17;46.20;100712.09;4666476;55;1139058;-74
2022/05/03 18:38:50;;;;;;;15.03;5.92;;;;;;;17.00;46.53;100712.96;4699365;55;1140948;-72
2022/05/03 18:43:56;;;;;;;13.10;5.08;;;;;;;16.80;46.97;100719.81;4676294;56;1140970;-72
2022/05/03 18:49:03;;;;;;;8.80;3.58;;;;;;;16.66;47.40;100723.52;4675488;55;1193819;-73
2022/05/03 18:59:33;;;;;;;6.60;2.80;;;;;;;16.37;48.36;100731.72;4669431;55;1138978;-74
2022/05/03 19:04:39;;;;;;;3.70;2.65;;;;;;;16.18;48.96;100746.06;4709078;56;1139294;-73
2022/05/03 19:09:46;;;;;;;11.80;5.35;;;;;;;16.10;49.64;100748.13;4680404;56;1139085;-72
2022/05/03 19:14:52;;;;;;;23.73;9.60;;;;;;;16.13;50.04;100745.16;4625696;55;1148451;-74
2022/05/03 19:19:58;;;;;;;19.60;8.50;;;;;;;16.16;50.23;100760.88;4695991;55;1141194;-75
2022/05/03 19:30:37;;;;;;;13.00;8.17;;;;;;;15.80;50.38;100746.59;4693100;55;1150548;-73
2022/05/03 19:35:46;;;;;;;10.53;5.85;;;;;;;15.69;51.07;100760.11;4676935;55;1141230;-76
2022/05/03 19:40:52;;;;;;;8.70;4.33;;;;;;;15.58;51.57;100764.80;4699431;55;1140876;-73
2022/05/03 19:45:58;;;;;;;8.00;4.95;;;;;;;15.46;52.07;100770.73;4701021;55;1139049;-74
2022/05/03 19:51:04;;;;;;;5.67;3.60;;;;;;;15.17;52.55;100775.28;5020335;55;1138807;-73
2022/05/03 19:56:11;;;;;;;11.87;4.97;;;;;;;15.02;53.38;100775.72;5295341;55;1137077;-75
2022/05/03 20:01:16;;;;;;;11.83;4.77;;;;;;;15.01;53.86;100786.02;5291835;55;1139129;-72
2022/05/03 20:06:22;;;;;;;10.97;4.00;;;;;;;14.97;54.58;100784.61;5310466;55;1138965;-72
2022/05/03 20:11:29;;;;;;;7.72;4.47;;;;;;;14.91;54.66;100791.01;5293085;55;1138859;-73
2022/05/03 20:16:35;;;;;;;10.53;4.47;;;;;;;14.74;54.96;100796.05;5221508;56;1136910;-74
2022/05/03 20:21:41;;;;;;;11.67;3.87;;;;;;;14.65;55.42;100805.36;5277530;55;1138994;-72
2022/05/03 20:26:47;;;;;;;5.63;3.80;;;;;;;14.57;55.81;100809.19;5278393;55;1138953;-73
2022/05/03 20:31:53;;;;;;;6.97;4.10;;;;;;;14.54;56.16;100812.12;5278388;55;1136907;-72
2022/05/03 20:36:59;;;;;;;9.17;4.63;;;;;;;14.49;56.50;100816.55;5278377;55;1136985;-75
2022/05/03 20:42:05;;;;;;;5.00;3.57;;;;;;;14.43;56.69;100819.73;5276765;55;1137254;-75
2022/05/03 20:52:35;;;;;;;4.97;3.27;;;;;;;14.22;57.38;100823.77;5252340;55;1138965;-76
2022/05/03 20:57:41;;;;;;;4.07;3.00;;;;;;;14.09;57.89;100832.47;5239549;55;1138978;-74
2022/05/03 21:02:48;;;;;;;4.73;2.97;;;;;;;13.98;58.11;100828.58;5245098;55;1139213;-71
2022/05/03 21:07:53;;;;;;;8.88;3.62;;;;;;;14.03;58.60;100839.67;5229971;55;1139094;-75
2022/05/03 21:12:59;;;;;;;5.50;3.33;;;;;;;13.98;58.51;100848.52;5180022;56;1139217;-71
2022/05/03 21:18:05;;;;;;;9.43;3.03;;;;;;;13.90;58.94;100857.66;5156747;56;1139200;-73
2022/05/03 21:23:11;;;;;;;5.87;3.03;;;;;;;13.94;59.26;100863.89;5184527;56;1139399;-72
2022/05/03 21:28:18;;;;;;;4.23;3.77;;;;;;;14.02;59.28;100871.23;5169906;56;1139001;-74
2022/05/03 21:33:24;;;;;;;5.47;3.13;;;;;;;14.11;59.21;100870.42;5199919;56;1138978;-72
2022/05/03 21:38:29;;;;;;;5.53;3.77;;;;;;;14.16;59.29;100864.70;5174153;56;1139062;-74
2022/05/03 21:43:35;;;;;;;6.80;3.40;;;;;;;14.15;59.40;100858.55;5179837;56;1139281;-74
2022/05/03 21:48:42;;;;;;;5.07;3.10;;;;;;;14.07;59.21;100859.20;5237945;56;1139584;-74
2022/05/03 21:53:48;;;;;;;2.90;2.33;;;;;;;13.95;59.61;100862.92;5238082;56;1139229;-73
2022/05/03 21:58:53;;;;;;;4.10;3.03;;;;;;;13.85;59.87;100869.17;5227860;56;1139237;-74
2022/05/03 22:03:59;;;;;;;4.27;3.43;;;;;;;13.83;60.25;100872.45;5204254;56;1138983;-73
2022/05/03 22:09:05;;;;;;;5.47;3.73;;;;;;;13.75;60.37;100870.42;5155874;57;1138969;-73
2022/05/03 22:14:11;;;;;;;6.33;3.77;;;;;;;13.65;60.68;100866.39;5132476;57;1138959;-74
2022/05/03 22:19:17;;;;;;;5.53;3.63;;;;;;;13.62;60.93;100873.77;5132636;57;1139189;-73
2022/05/03 22:24:22;;;;;;;6.77;4.13;;;;;;;13.55;61.33;100885.91;5131199;57;1139166;-75
2022/05/03 22:29:28;;;;;;;5.57;3.90;;;;;;;13.48;61.37;100890.88;5128005;57;1139210;-74
2022/05/03 22:34:34;;;;;;;6.27;4.60;;;;;;;13.46;61.40;100887.51;5128033;57;1138946;-73
2022/05/03 22:39:40;;;;;;;6.40;4.00;;;;;;;13.39;61.58;100894.33;5128158;57;1138983;-73
2022/05/03 22:44:45;;;;;;;5.97;4.17;;;;;;;13.29;61.69;100899.53;5128268;57;1139100;-74
2022/05/03 22:49:51;;;;;;;6.80;4.20;;;;;;;13.18;61.98;100919.51;5131249;57;1139421;-73
2022/05/03 22:54:57;;;;;;;4.77;4.27;;;;;;;13.20;62.73;100911.42;5133705;57;1139348;-75
2022/05/03 23:00:05;;;;;;;5.30;4.17;;;;;;;13.26;62.63;100913.58;5142677;56;1138876;-75
2022/05/03 23:05:11;;;;;;;5.27;4.23;;;;;;;13.22;62.70;100919.63;5133703;57;1139208;-73
2022/05/03 23:10:17;;;;;;;5.13;4.37;;;;;;;13.12;62.80;100924.47;5133720;57;1138895;-73
2022/05/03 23:15:23;;;;;;;8.50;4.47;;;;;;;13.03;63.16;100913.61;5133577;57;1138977;-73
2022/05/03 23:20:29;;;;;;;5.87;4.00;;;;;;;13.07;63.47;100921.33;5133620;57;1138926;-73
2022/05/03 23:25:35;;;;;;;6.30;4.80;;;;;;;12.95;63.54;100914.73;5133806;57;1139331;-75
2022/05/03 23:30:41;;;;;;;7.33;4.67;;;;;;;12.89;64.24;100907.73;5133741;57;1138959;-74
2022/05/03 23:35:49;;;;;;;8.23;4.80;;;;;;;12.94;64.80;100919.68;5133677;57;1139533;-74
2022/05/03 23:40:55;;;;;;;6.17;4.67;;;;;;;12.87;64.63;100919.80;5133593;57;1139000;-73
2022/05/03 23:46:10;;;;;;;6.03;4.43;;;;;;;12.77;64.97;100916.70;5133057;57;1139187;-75
2022/05/03 23:51:16;;;;;;;7.33;5.13;;;;;;;12.62;65.19;100916.95;5097361;57;1139585;-73
2022/05/03 23:56:21;;;;;;;5.63;4.80;;;;;;;12.48;65.72;100917.21;5078719;57;1136908;-73
